createdAt,value
2022-08-25T00:01:16.241Z,27.25
2022-08-25T00:03:50.762Z,27.21
2022-08-25T00:06:23.653Z,27.18
2022-08-25T00:08:59.761Z,27.19
2022-08-25T00:11:34.880Z,27.17
2022-08-25T00:14:10.722Z,27.22
2022-08-25T00:16:43.959Z,27.18
2022-08-25T00:19:21.037Z,27.14
2022-08-25T00:21:54.039Z,27.13
2022-08-25T00:24:28.903Z,27.13
2022-08-25T00:27:02.450Z,27.01
2022-08-25T00:29:37.983Z,26.99
2022-08-25T00:32:10.767Z,26.99
2022-08-25T00:34:43.483Z,26.98
2022-08-25T00:37:16.622Z,26.95
2022-08-25T00:39:50.863Z,26.91
2022-08-25T00:42:23.856Z,26.88
2022-08-25T00:44:58.405Z,26.80
2022-08-25T00:47:31.436Z,26.84
2022-08-25T00:50:07.114Z,26.85
2022-08-25T00:52:44.895Z,26.81
2022-08-25T00:55:22.368Z,26.82
2022-08-25T00:58:01.217Z,26.75
2022-08-25T01:00:37.230Z,26.69
2022-08-25T01:03:10.480Z,26.66
2022-08-25T01:05:45.463Z,26.68
2022-08-25T01:08:21.024Z,26.64
2022-08-25T01:10:55.332Z,26.59
2022-08-25T01:13:33.185Z,26.59
2022-08-25T01:16:06.291Z,26.54
2022-08-25T01:18:50.989Z,26.55
2022-08-25T01:21:27.351Z,26.49
2022-08-25T01:24:01.648Z,26.46
2022-08-25T01:26:36.328Z,26.45
2022-08-25T01:29:22.250Z,26.38
2022-08-25T01:31:58.007Z,26.38
2022-08-25T01:34:32.274Z,26.34
2022-08-25T01:37:06.544Z,26.33
2022-08-25T01:39:39.688Z,26.33
2022-08-25T01:42:33.852Z,26.27
2022-08-25T01:45:07.829Z,26.21
2022-08-25T01:47:40.724Z,26.21
2022-08-25T01:50:13.430Z,26.19
2022-08-25T01:52:52.632Z,26.16
2022-08-25T01:55:25.523Z,26.12
2022-08-25T01:57:59.737Z,26.12
2022-08-25T02:00:32.635Z,26.10
2022-08-25T02:03:05.715Z,26.03
2022-08-25T02:05:49.045Z,26.00
2022-08-25T02:08:24.416Z,26.00
2022-08-25T02:10:57.179Z,25.97
2022-08-25T02:13:31.574Z,25.94
2022-08-25T02:16:05.791Z,25.92
2022-08-25T02:18:38.644Z,25.90
2022-08-25T02:21:11.412Z,25.86
2022-08-25T02:23:45.545Z,25.84
2022-08-25T02:26:19.963Z,25.83
2022-08-25T02:28:54.009Z,25.82
2022-08-25T02:31:27.196Z,25.81
2022-08-25T02:34:00.261Z,25.79
2022-08-25T02:36:33.663Z,25.80
2022-08-25T02:39:10.425Z,25.84
2022-08-25T02:41:43.526Z,25.85
2022-08-25T02:44:16.225Z,25.75
2022-08-25T02:46:48.927Z,25.69
2022-08-25T02:49:21.665Z,25.67
2022-08-25T02:51:55.182Z,25.71
2022-08-25T02:54:29.381Z,25.58
2022-08-25T02:57:02.134Z,25.61
2022-08-25T02:59:36.318Z,25.62
2022-08-25T03:02:09.194Z,25.62
2022-08-25T03:04:42.011Z,25.61
2022-08-25T03:07:14.790Z,25.56
2022-08-25T03:09:49.791Z,25.54
2022-08-25T03:12:22.995Z,25.51
2022-08-25T03:14:55.790Z,25.51
2022-08-25T03:17:28.994Z,25.46
2022-08-25T03:20:03.524Z,25.40
2022-08-25T03:22:36.500Z,25.43
2022-08-25T03:25:29.027Z,25.40
2022-08-25T03:28:02.589Z,25.39
2022-08-25T03:30:36.584Z,25.35
2022-08-25T03:33:09.675Z,25.33
2022-08-25T03:35:42.814Z,25.33
2022-08-25T03:38:16.886Z,25.27
2022-08-25T03:40:51.117Z,25.26
2022-08-25T03:43:24.065Z,25.26
2022-08-25T03:45:57.112Z,25.23
2022-08-25T03:48:29.899Z,25.17
2022-08-25T03:51:02.714Z,25.23
2022-08-25T03:53:35.466Z,25.23
2022-08-25T03:56:09.670Z,25.22
2022-08-25T03:58:42.395Z,25.25
2022-08-25T04:01:15.867Z,25.19
2022-08-25T04:03:51.029Z,25.14
2022-08-25T04:06:24.274Z,25.19
2022-08-25T04:08:58.639Z,25.17
2022-08-25T04:11:32.758Z,25.12
2022-08-25T04:14:06.346Z,25.03
2022-08-25T04:16:39.169Z,24.98
2022-08-25T04:19:14.084Z,24.96
2022-08-25T04:21:46.988Z,24.95
2022-08-25T04:24:20.571Z,24.93
2022-08-25T04:26:54.643Z,24.90
2022-08-25T04:29:27.912Z,24.86
2022-08-25T04:32:01.014Z,24.86
2022-08-25T04:34:33.831Z,24.83
2022-08-25T04:37:07.921Z,24.84
2022-08-25T04:39:40.885Z,24.75
2022-08-25T04:42:15.114Z,24.77
2022-08-25T04:44:47.790Z,24.75
2022-08-25T04:47:20.540Z,24.76
2022-08-25T04:49:53.226Z,24.74
2022-08-25T04:52:25.928Z,24.67
2022-08-25T04:54:58.673Z,24.70
2022-08-25T04:57:32.681Z,24.67
2022-08-25T05:00:06.805Z,24.63
2022-08-25T05:02:39.521Z,24.60
2022-08-25T05:05:13.386Z,24.59
2022-08-25T05:07:46.782Z,24.59
2022-08-25T05:10:20.188Z,24.56
2022-08-25T05:12:54.901Z,24.57
2022-08-25T05:15:45.229Z,24.55
2022-08-25T05:18:21.287Z,24.55
2022-08-25T05:20:54.884Z,24.51
2022-08-25T05:23:27.592Z,24.49
2022-08-25T05:26:04.302Z,24.53
2022-08-25T05:28:40.690Z,24.50
2022-08-25T05:31:15.539Z,24.51
2022-08-25T05:33:48.638Z,24.51
2022-08-25T05:36:21.800Z,24.50
2022-08-25T05:38:54.584Z,24.49
2022-08-25T05:41:30.233Z,24.50
2022-08-25T05:44:04.842Z,24.51
2022-08-25T05:46:37.523Z,24.49
2022-08-25T05:49:10.184Z,24.51
2022-08-25T05:51:42.897Z,24.48
2022-08-25T05:54:15.851Z,24.48
2022-08-25T05:56:48.624Z,24.45
2022-08-25T05:59:22.645Z,24.45
2022-08-25T06:02:13.080Z,24.43
2022-08-25T06:04:46.114Z,24.40
2022-08-25T06:07:19.010Z,24.42
2022-08-25T06:09:51.640Z,24.41
2022-08-25T06:12:24.366Z,24.40
2022-08-25T06:14:58.743Z,24.39
2022-08-25T06:17:31.512Z,24.35
2022-08-25T06:20:05.877Z,24.37
2022-08-25T06:22:40.901Z,24.40
2022-08-25T06:25:15.636Z,24.34
2022-08-25T06:27:48.888Z,24.38
2022-08-25T06:30:28.544Z,24.37
2022-08-25T06:33:01.766Z,24.32
2022-08-25T06:35:34.909Z,24.34
2022-08-25T06:38:08.091Z,24.32
2022-08-25T06:40:40.763Z,24.40
2022-08-25T06:43:13.502Z,24.39
2022-08-25T06:45:48.431Z,24.38
2022-08-25T06:48:21.249Z,24.36
2022-08-25T06:50:54.186Z,24.33
2022-08-25T06:53:26.911Z,24.34
2022-08-25T06:56:04.573Z,24.36
2022-08-25T06:58:39.461Z,24.32
2022-08-25T07:01:20.329Z,24.27
2022-08-25T07:03:57.328Z,24.29
2022-08-25T07:06:32.952Z,24.32
2022-08-25T07:09:07.670Z,24.34
2022-08-25T07:11:41.040Z,24.33
2022-08-25T07:14:16.156Z,24.35
2022-08-25T07:16:50.594Z,24.34
2022-08-25T07:19:23.393Z,24.34
2022-08-25T07:21:56.114Z,24.30
2022-08-25T07:24:28.996Z,24.39
2022-08-25T07:27:01.633Z,24.41
2022-08-25T07:29:38.749Z,24.59
2022-08-25T07:32:16.958Z,24.56
2022-08-25T07:35:07.241Z,24.56
2022-08-25T07:37:49.333Z,24.57
2022-08-25T07:40:24.755Z,24.65
2022-08-25T07:43:00.412Z,24.74
2022-08-25T07:45:36.537Z,24.91
2022-08-25T07:48:21.476Z,25.05
2022-08-25T07:50:54.446Z,25.17
2022-08-25T07:53:27.261Z,25.38
2022-08-25T07:56:00.201Z,25.49
2022-08-25T07:58:33.115Z,25.66
2022-08-25T08:01:08.076Z,25.71
2022-08-25T08:03:51.143Z,25.77
2022-08-25T08:06:25.985Z,26.04
2022-08-25T08:08:59.869Z,26.20
2022-08-25T08:11:45.146Z,26.34
2022-08-25T08:14:18.773Z,26.46
2022-08-25T08:16:52.177Z,26.67
2022-08-25T08:19:26.627Z,26.69
2022-08-25T08:22:02.238Z,26.84
2022-08-25T08:24:44.720Z,27.00
2022-08-25T08:27:27.188Z,27.19
2022-08-25T08:30:00.457Z,27.42
2022-08-25T08:33:05.805Z,27.53
2022-08-25T08:35:27.362Z,27.85
2022-08-25T08:38:00.367Z,28.22
2022-08-25T08:41:04.794Z,28.33
2022-08-25T08:43:39.801Z,28.40
2022-08-25T08:46:12.634Z,28.58
2022-08-25T08:48:52.297Z,28.76
2022-08-25T08:51:33.368Z,29.03
2022-08-25T08:54:15.045Z,29.17
2022-08-25T08:56:52.838Z,29.54
2022-08-25T08:59:31.003Z,29.68
2022-08-25T09:02:06.224Z,29.40
2022-08-25T09:04:49.567Z,29.45
2022-08-25T09:07:30.364Z,29.78
2022-08-25T09:10:05.323Z,29.77
2022-08-25T09:12:48.173Z,29.87
2022-08-25T09:15:25.820Z,30.09
2022-08-25T09:18:08.719Z,29.93
2022-08-25T09:21:00.287Z,30.08
2022-08-25T09:23:41.536Z,30.41
2022-08-25T09:26:25.681Z,30.57
2022-08-25T09:29:03.301Z,30.28
2022-08-25T09:31:41.557Z,30.02
2022-08-25T09:34:19.317Z,30.56
2022-08-25T09:36:53.493Z,30.76
2022-08-25T09:39:27.727Z,31.08
2022-08-25T09:42:01.465Z,31.54
2022-08-25T09:44:43.928Z,31.43
2022-08-25T09:47:23.784Z,31.34
2022-08-25T09:50:00.304Z,31.69
2022-08-25T09:52:41.386Z,31.71
2022-08-25T09:55:32.426Z,31.95
2022-08-25T09:58:16.661Z,32.01
2022-08-25T10:01:08.118Z,32.04
2022-08-25T10:03:59.609Z,32.10
2022-08-25T10:06:38.674Z,31.88
2022-08-25T10:09:23.053Z,31.47
2022-08-25T10:12:01.079Z,32.01
2022-08-25T10:14:38.770Z,32.22
2022-08-25T10:17:24.752Z,32.31
2022-08-25T10:20:18.162Z,32.12
2022-08-25T10:22:53.876Z,31.99
2022-08-25T10:25:30.862Z,31.85
2022-08-25T10:28:13.824Z,32.29
2022-08-25T10:30:58.497Z,32.49
2022-08-25T10:33:39.994Z,32.85
2022-08-25T10:36:21.326Z,33.07
2022-08-25T10:38:58.210Z,33.15
2022-08-25T10:41:43.808Z,32.95
2022-08-25T10:44:43.096Z,33.17
2022-08-25T10:47:45.822Z,33.27
2022-08-25T10:50:27.821Z,33.55
2022-08-25T10:53:20.089Z,33.65
2022-08-25T10:56:08.664Z,33.74
2022-08-25T10:59:04.217Z,33.34
2022-08-25T11:01:53.573Z,33.72
2022-08-25T11:04:33.839Z,33.83
2022-08-25T11:07:13.085Z,33.59
2022-08-25T11:09:49.597Z,33.66
2022-08-25T11:12:31.078Z,33.79
2022-08-25T11:15:11.107Z,34.05
2022-08-25T11:17:53.688Z,34.05
2022-08-25T11:20:33.591Z,34.08
2022-08-25T11:23:14.792Z,34.10
2022-08-25T11:25:52.865Z,34.26
2022-08-25T11:28:34.324Z,34.58
2022-08-25T11:31:09.886Z,34.31
2022-08-25T11:33:44.668Z,34.45
2022-08-25T11:36:29.513Z,34.30
2022-08-25T11:39:15.422Z,34.50
2022-08-25T11:42:01.147Z,34.35
2022-08-25T11:44:53.771Z,34.70
2022-08-25T11:48:09.428Z,34.83
2022-08-25T11:51:00.146Z,34.70
2022-08-25T11:53:35.335Z,34.60
2022-08-25T11:56:13.482Z,35.00
2022-08-25T11:58:50.079Z,35.17
2022-08-25T12:02:01.516Z,35.10
2022-08-25T12:04:45.015Z,35.07
2022-08-25T12:07:24.394Z,35.32
2022-08-25T12:10:20.949Z,35.30
2022-08-25T12:13:26.788Z,35.42
2022-08-25T12:16:02.398Z,35.40
2022-08-25T12:18:46.322Z,35.49
2022-08-25T12:21:33.704Z,35.53
2022-08-25T12:24:15.140Z,35.44
2022-08-25T12:26:57.684Z,35.40
2022-08-25T12:29:42.098Z,35.63
2022-08-25T12:32:26.332Z,35.66
2022-08-25T12:35:24.332Z,36.02
2022-08-25T12:38:00.613Z,36.20
2022-08-25T12:40:53.552Z,36.26
2022-08-25T12:43:33.983Z,36.12
2022-08-25T12:46:36.153Z,36.20
2022-08-25T12:49:30.315Z,36.00
2022-08-25T12:52:07.811Z,36.25
2022-08-25T12:54:48.364Z,36.50
2022-08-25T12:57:35.165Z,36.59
2022-08-25T13:00:18.459Z,36.55
2022-08-25T13:03:17.104Z,36.57
2022-08-25T13:06:10.894Z,36.81
2022-08-25T13:09:27.448Z,36.53
2022-08-25T13:12:08.343Z,36.76
2022-08-25T13:14:45.322Z,36.94
2022-08-25T13:17:27.356Z,36.79
2022-08-25T13:20:19.862Z,36.74
2022-08-25T13:22:57.548Z,36.91
2022-08-25T13:25:33.273Z,36.86
2022-08-25T13:28:11.039Z,36.55
2022-08-25T13:30:45.672Z,36.67
2022-08-25T13:33:20.328Z,36.70
2022-08-25T13:36:16.077Z,36.70
2022-08-25T13:38:49.968Z,36.81
2022-08-25T13:41:28.666Z,36.81
2022-08-25T13:44:02.683Z,36.75
2022-08-25T13:46:37.414Z,36.64
2022-08-25T13:49:11.179Z,36.66
2022-08-25T13:51:56.490Z,36.76
2022-08-25T13:54:32.596Z,36.83
2022-08-25T13:57:09.803Z,36.58
2022-08-25T13:59:46.517Z,36.56
2022-08-25T14:02:45.613Z,36.45
2022-08-25T14:05:36.043Z,36.64
2022-08-25T14:08:31.909Z,36.38
2022-08-25T14:11:14.910Z,36.56
2022-08-25T14:13:49.180Z,36.64
2022-08-25T14:16:25.408Z,36.37
2022-08-25T14:19:01.957Z,36.37
2022-08-25T14:21:35.078Z,36.38
2022-08-25T14:24:17.275Z,36.14
2022-08-25T14:26:55.434Z,36.41
2022-08-25T14:29:28.269Z,36.43
2022-08-25T14:32:02.374Z,35.90
2022-08-25T14:34:41.812Z,35.75
2022-08-25T14:37:18.523Z,35.78
2022-08-25T14:39:52.340Z,35.77
2022-08-25T14:42:26.358Z,35.77
2022-08-25T14:44:59.198Z,35.76
2022-08-25T14:47:33.048Z,35.44
2022-08-25T14:50:08.274Z,35.52
2022-08-25T14:52:43.740Z,35.20
2022-08-25T14:55:29.738Z,35.35
2022-08-25T14:58:04.602Z,35.02
2022-08-25T15:00:44.827Z,34.72
2022-08-25T15:03:25.020Z,34.97
2022-08-25T15:05:59.596Z,34.85
2022-08-25T15:08:50.128Z,34.71
2022-08-25T15:11:23.234Z,34.64
2022-08-25T15:13:56.503Z,34.52
2022-08-25T15:16:35.237Z,34.49
2022-08-25T15:19:11.498Z,34.51
2022-08-25T15:21:47.390Z,34.63
2022-08-25T15:24:22.462Z,34.07
2022-08-25T15:26:57.812Z,33.93
2022-08-25T15:29:32.352Z,33.98
2022-08-25T15:32:08.013Z,33.92
2022-08-25T15:34:40.715Z,34.07
2022-08-25T15:37:16.805Z,33.70
2022-08-25T15:39:49.542Z,33.43
2022-08-25T15:42:22.695Z,33.46
2022-08-25T15:44:57.748Z,33.01
2022-08-25T15:47:32.220Z,33.22
2022-08-25T15:50:07.609Z,32.87
2022-08-25T15:52:46.632Z,33.10
2022-08-25T15:55:21.184Z,33.31
2022-08-25T15:57:54.338Z,33.12
2022-08-25T16:00:27.059Z,32.58
2022-08-25T16:03:04.931Z,32.88
2022-08-25T16:05:45.147Z,32.72
2022-08-25T16:08:22.428Z,32.65
2022-08-25T16:10:55.764Z,32.60
2022-08-25T16:13:30.320Z,32.13
2022-08-25T16:16:05.180Z,32.39
2022-08-25T16:18:38.379Z,32.10
2022-08-25T16:21:12.870Z,31.83
2022-08-25T16:23:48.150Z,31.85
2022-08-25T16:26:22.531Z,32.14
2022-08-25T16:28:55.534Z,31.79
2022-08-25T16:31:28.301Z,32.16
2022-08-25T16:34:02.459Z,32.60
2022-08-25T16:36:35.180Z,32.71
2022-08-25T16:39:11.279Z,32.81
2022-08-25T16:41:43.969Z,32.80
2022-08-25T16:44:17.145Z,32.78
2022-08-25T16:46:56.051Z,32.70
2022-08-25T16:49:28.874Z,32.62
2022-08-25T16:52:02.539Z,32.51
2022-08-25T16:54:55.397Z,32.42
2022-08-25T16:57:30.046Z,32.38
2022-08-25T17:00:04.773Z,32.35
2022-08-25T17:02:37.661Z,32.29
2022-08-25T17:05:12.833Z,32.21
2022-08-25T17:08:06.276Z,32.22
2022-08-25T17:10:43.409Z,32.10
2022-08-25T17:13:17.324Z,32.00
2022-08-25T17:15:52.190Z,31.93
2022-08-25T17:18:25.598Z,31.68
2022-08-25T17:21:02.849Z,31.20
2022-08-25T17:23:38.552Z,30.84
2022-08-25T17:26:16.677Z,30.75
2022-08-25T17:28:50.218Z,31.01
2022-08-25T17:31:23.964Z,31.15
2022-08-25T17:33:57.342Z,31.08
2022-08-25T17:36:31.750Z,31.09
2022-08-25T17:39:04.929Z,31.02
2022-08-25T17:41:39.939Z,31.01
2022-08-25T17:44:14.285Z,30.86
2022-08-25T17:46:48.512Z,30.93
2022-08-25T17:49:22.471Z,30.86
2022-08-25T17:51:55.834Z,30.78
2022-08-25T17:54:28.694Z,30.66
2022-08-25T17:57:03.127Z,30.56
2022-08-25T17:59:37.173Z,30.59
2022-08-25T18:02:10.480Z,30.53
2022-08-25T18:04:43.746Z,30.46
2022-08-25T18:07:16.548Z,30.47
2022-08-25T18:09:49.939Z,30.40
2022-08-25T18:12:27.435Z,30.36
2022-08-25T18:15:00.276Z,30.18
2022-08-25T18:17:32.938Z,30.22
2022-08-25T18:20:08.420Z,30.09
2022-08-25T18:22:44.121Z,30.11
2022-08-25T18:25:17.715Z,29.97
2022-08-25T18:27:51.976Z,29.90
2022-08-25T18:30:26.267Z,29.79
2022-08-25T18:33:00.275Z,29.72
2022-08-25T18:35:32.996Z,29.61
2022-08-25T18:38:23.496Z,29.59
2022-08-25T18:40:57.858Z,29.52
2022-08-25T18:43:35.061Z,29.35
2022-08-25T18:46:08.266Z,29.26
2022-08-25T18:48:42.757Z,29.23
2022-08-25T18:51:15.702Z,29.15
2022-08-25T18:53:50.245Z,29.11
2022-08-25T18:56:25.619Z,29.02
2022-08-25T18:58:59.772Z,28.92
2022-08-25T19:01:32.809Z,28.75
2022-08-25T19:04:05.884Z,28.43
2022-08-25T19:06:38.644Z,28.43
2022-08-25T19:09:16.897Z,28.11
2022-08-25T19:11:52.672Z,27.73
2022-08-25T19:14:29.426Z,28.02
2022-08-25T19:17:02.225Z,28.00
2022-08-25T19:19:35.561Z,27.90
2022-08-25T19:22:31.765Z,27.91
2022-08-25T19:25:06.405Z,27.91
2022-08-25T19:27:41.027Z,27.56
2022-08-25T19:30:17.470Z,27.58
2022-08-25T19:32:51.207Z,27.59
2022-08-25T19:35:31.842Z,27.31
2022-08-25T19:38:07.552Z,27.25
2022-08-25T19:41:01.001Z,27.30
2022-08-25T19:43:34.098Z,27.26
2022-08-25T19:46:08.297Z,26.95
2022-08-25T19:48:41.095Z,27.14
2022-08-25T19:51:14.280Z,26.51
2022-08-25T19:53:54.841Z,26.82
2022-08-25T19:56:29.326Z,26.94
2022-08-25T19:59:02.571Z,26.87
2022-08-25T20:01:37.647Z,26.91
2022-08-25T20:04:13.178Z,26.80
2022-08-25T20:06:48.376Z,26.25
2022-08-25T20:09:39.292Z,26.47
2022-08-25T20:14:48.493Z,26.48
2022-08-25T20:17:26.251Z,26.45
2022-08-25T20:20:05.438Z,26.51
2022-08-25T20:22:38.769Z,26.54
2022-08-25T20:25:14.390Z,26.21
2022-08-25T20:27:50.773Z,26.43
2022-08-25T20:30:26.900Z,26.53
2022-08-25T20:33:01.594Z,26.54
2022-08-25T20:35:34.475Z,26.67
2022-08-25T20:38:07.913Z,26.67
2022-08-25T20:40:43.461Z,26.54
2022-08-25T20:43:16.399Z,26.58
2022-08-25T20:45:48.997Z,26.54
2022-08-25T20:48:24.078Z,26.49
2022-08-25T20:51:00.342Z,26.44
2022-08-25T20:53:35.320Z,26.42
2022-08-25T20:56:09.485Z,26.40
2022-08-25T20:58:43.448Z,26.40
2022-08-25T21:01:23.055Z,26.44
2022-08-25T21:03:57.509Z,26.43
2022-08-25T21:06:30.431Z,26.35
2022-08-25T21:09:03.577Z,26.36
2022-08-25T21:11:43.158Z,26.37
2022-08-25T21:14:16.854Z,26.42
2022-08-25T21:16:51.899Z,26.35
2022-08-25T21:19:30.139Z,26.27
2022-08-25T21:22:03.281Z,26.23
2022-08-25T21:24:36.507Z,26.29
2022-08-25T21:27:09.637Z,26.23
2022-08-25T21:29:55.054Z,26.13
2022-08-25T21:32:28.305Z,26.22
2022-08-25T21:35:02.535Z,26.09
2022-08-25T21:37:40.419Z,26.19
2022-08-25T21:40:15.885Z,26.08
2022-08-25T21:42:48.873Z,26.07
2022-08-25T21:45:22.208Z,26.04
2022-08-25T21:47:54.924Z,26.09
2022-08-25T21:50:29.416Z,26.19
2022-08-25T21:53:02.259Z,26.08
2022-08-25T21:55:39.415Z,26.10
2022-08-25T21:58:14.930Z,26.12
2022-08-25T22:00:47.504Z,26.04
2022-08-25T22:03:20.365Z,25.92
2022-08-25T22:05:54.787Z,25.80
2022-08-25T22:08:30.641Z,25.77
2022-08-25T22:11:03.718Z,25.86
2022-08-25T22:13:37.070Z,25.79
2022-08-25T22:16:15.118Z,25.83
2022-08-25T22:18:48.234Z,25.76
2022-08-25T22:21:29.243Z,25.67
2022-08-25T22:24:03.372Z,25.76
2022-08-25T22:26:41.872Z,25.80
2022-08-25T22:29:25.024Z,25.72
2022-08-25T22:32:00.734Z,25.62
2022-08-25T22:34:35.786Z,25.63
2022-08-25T22:37:17.675Z,25.68
2022-08-25T22:39:50.639Z,25.69
2022-08-25T22:42:25.465Z,25.76
2022-08-25T22:44:58.671Z,25.60
2022-08-25T22:47:33.815Z,25.68
2022-08-25T22:50:07.527Z,25.54
2022-08-25T22:52:42.426Z,25.48
2022-08-25T22:55:15.589Z,25.55
2022-08-25T22:57:50.600Z,25.49
2022-08-25T23:00:27.669Z,25.39
2022-08-25T23:03:00.499Z,25.46
2022-08-25T23:05:33.333Z,25.43
2022-08-25T23:08:07.759Z,25.42
2022-08-25T23:10:40.747Z,25.46
2022-08-25T23:13:19.415Z,25.43
2022-08-25T23:16:07.677Z,25.47
2022-08-25T23:18:45.540Z,25.48
2022-08-25T23:21:41.091Z,25.42
2022-08-25T23:24:26.819Z,25.40
2022-08-25T23:27:05.764Z,25.37
2022-08-25T23:29:40.820Z,25.47
2022-08-25T23:32:14.662Z,25.43
2022-08-25T23:34:47.831Z,25.37
2022-08-25T23:37:21.577Z,25.32
2022-08-25T23:39:55.732Z,25.32
2022-08-25T23:42:28.499Z,25.28
2022-08-25T23:45:01.838Z,25.18
2022-08-25T23:47:35.193Z,25.24
2022-08-25T23:50:09.510Z,25.12
2022-08-25T23:52:42.289Z,25.16
2022-08-25T23:55:16.351Z,25.17
2022-08-25T23:57:51.680Z,25.16
